createdAt,value
2018-03-16T00:02:19.586Z,58.10
2018-03-16T00:04:53.260Z,59.20
2018-03-16T00:07:27.044Z,59.60
2018-03-16T00:10:00.863Z,59.20
2018-03-16T00:12:34.621Z,59.20
2018-03-16T00:15:08.437Z,59.00
2018-03-16T00:17:42.156Z,59.40
2018-03-16T00:20:16.860Z,59.20
2018-03-16T00:22:50.997Z,59.90
2018-03-16T00:25:24.614Z,60.10
2018-03-16T00:27:58.353Z,59.70
2018-03-16T00:30:32.168Z,59.70
2018-03-16T00:33:05.998Z,60.00
2018-03-16T00:35:40.447Z,59.90
2018-03-16T00:38:14.132Z,59.90
2018-03-16T00:40:48.713Z,59.60
2018-03-16T00:43:22.356Z,59.60
2018-03-16T00:45:56.993Z,59.70
2018-03-16T00:48:30.653Z,60.10
2018-03-16T00:51:04.802Z,59.90
2018-03-16T00:53:40.165Z,59.20
2018-03-16T00:56:13.893Z,59.50
2018-03-16T00:58:48.493Z,59.80
2018-03-16T01:01:22.241Z,59.80
2018-03-16T01:03:56.701Z,60.10
2018-03-16T01:06:31.513Z,60.10
2018-03-16T01:09:05.288Z,60.70
2018-03-16T01:11:39.145Z,60.20
2018-03-16T01:14:13.664Z,60.50
2018-03-16T01:16:47.324Z,60.30
2018-03-16T01:19:22.330Z,61.60
2018-03-16T01:21:56.218Z,60.80
2018-03-16T01:24:29.983Z,60.80
2018-03-16T01:27:04.943Z,60.20
2018-03-16T01:29:39.523Z,60.30
2018-03-16T01:32:14.090Z,60.70
2018-03-16T01:34:47.752Z,60.70
2018-03-16T01:37:22.405Z,61.20
2018-03-16T01:39:55.985Z,60.50
2018-03-16T01:42:29.672Z,60.10
2018-03-16T01:45:03.426Z,60.40
2018-03-16T01:47:37.152Z,60.60
2018-03-16T01:50:11.757Z,61.10
2018-03-16T01:52:57.314Z,61.00
2018-03-16T01:55:30.962Z,60.20
2018-03-16T01:58:04.904Z,60.70
2018-03-16T02:00:38.738Z,60.50
2018-03-16T02:03:12.773Z,60.10
2018-03-16T02:05:46.633Z,60.10
2018-03-16T02:08:20.438Z,60.70
2018-03-16T02:10:54.246Z,60.80
2018-03-16T02:13:28.061Z,61.00
2018-03-16T02:16:01.809Z,60.90
2018-03-16T02:18:35.509Z,60.40
2018-03-16T02:21:10.086Z,61.00
2018-03-16T02:23:43.893Z,61.00
2018-03-16T02:26:19.889Z,63.10
2018-03-16T02:28:53.496Z,63.10
2018-03-16T02:31:27.387Z,63.20
2018-03-16T02:34:01.772Z,64.20
2018-03-16T02:36:35.492Z,64.10
2018-03-16T02:39:12.783Z,63.60
2018-03-16T02:41:46.607Z,65.30
2018-03-16T02:44:20.357Z,65.00
2018-03-16T02:46:54.164Z,64.90
2018-03-16T02:49:29.245Z,64.70
2018-03-16T02:52:04.134Z,65.80
2018-03-16T02:54:39.063Z,65.30
2018-03-16T02:57:12.921Z,65.70
2018-03-16T02:59:47.516Z,66.70
2018-03-16T03:02:22.161Z,67.20
2018-03-16T03:04:55.832Z,67.10
2018-03-16T03:07:29.590Z,67.10
2018-03-16T03:10:04.375Z,67.10
2018-03-16T03:12:38.925Z,66.80
2018-03-16T03:15:12.471Z,66.90
2018-03-16T03:17:46.221Z,67.00
2018-03-16T03:20:21.698Z,67.80
2018-03-16T03:22:55.370Z,66.30
2018-03-16T03:25:29.824Z,67.00
2018-03-16T03:28:03.738Z,68.70
2018-03-16T03:30:37.540Z,68.20
2018-03-16T03:33:12.287Z,68.20
2018-03-16T03:35:46.185Z,68.10
2018-03-16T03:38:20.719Z,69.00
2018-03-16T03:40:54.819Z,69.00
2018-03-16T03:43:31.017Z,69.30
2018-03-16T03:46:05.621Z,69.50
2018-03-16T03:48:40.233Z,69.40
2018-03-16T03:51:15.084Z,69.90
2018-03-16T03:53:49.728Z,69.90
2018-03-16T03:56:23.719Z,70.50
2018-03-16T03:58:57.493Z,71.30
2018-03-16T04:01:31.313Z,71.30
2018-03-16T04:04:05.140Z,71.30
2018-03-16T04:06:39.670Z,71.30
2018-03-16T04:09:14.369Z,71.30
2018-03-16T04:11:48.024Z,71.80
2018-03-16T04:14:22.173Z,72.50
2018-03-16T04:16:55.902Z,72.30
2018-03-16T04:19:30.466Z,74.00
2018-03-16T04:22:05.746Z,74.00
2018-03-16T04:24:39.595Z,74.10
2018-03-16T04:27:14.259Z,74.10
2018-03-16T04:29:50.428Z,75.00
2018-03-16T04:32:28.742Z,74.80
2018-03-16T04:35:02.413Z,75.30
2018-03-16T04:37:37.008Z,76.90
2018-03-16T04:40:11.760Z,76.20
2018-03-16T04:42:45.527Z,77.50
2018-03-16T04:45:20.853Z,77.10
2018-03-16T04:47:54.791Z,78.00
2018-03-16T04:50:28.555Z,78.00
2018-03-16T04:53:03.097Z,78.50
2018-03-16T04:55:37.338Z,77.80
2018-03-16T04:58:11.245Z,78.30
2018-03-16T05:00:46.786Z,79.20
2018-03-16T05:03:21.496Z,79.30
2018-03-16T05:05:55.128Z,78.30
2018-03-16T05:08:29.689Z,79.40
2018-03-16T05:11:04.450Z,79.30
2018-03-16T05:13:39.284Z,79.30
2018-03-16T05:16:13.140Z,79.60
2018-03-16T05:18:48.374Z,79.70
2018-03-16T05:21:22.844Z,79.60
2018-03-16T05:23:56.710Z,79.50
2018-03-16T05:26:30.401Z,80.00
2018-03-16T05:29:04.194Z,80.60
2018-03-16T05:31:38.528Z,81.30
2018-03-16T05:34:13.445Z,81.00
2018-03-16T05:36:47.098Z,80.90
2018-03-16T05:39:20.860Z,81.90
2018-03-16T05:41:54.952Z,81.80
2018-03-16T05:44:29.010Z,82.00
2018-03-16T05:47:03.571Z,81.30
2018-03-16T05:49:39.271Z,82.00
2018-03-16T05:52:12.986Z,82.10
2018-03-16T05:54:47.627Z,82.30
2018-03-16T05:57:21.457Z,82.10
2018-03-16T05:59:55.304Z,81.70
2018-03-16T06:02:28.981Z,81.30
2018-03-16T06:05:02.781Z,81.40
2018-03-16T06:07:36.736Z,81.80
2018-03-16T06:10:11.125Z,80.50
2018-03-16T06:12:44.969Z,80.50
2018-03-16T06:15:18.878Z,79.20
2018-03-16T06:17:52.684Z,79.40
2018-03-16T06:20:26.422Z,79.10
2018-03-16T06:23:00.158Z,80.20
2018-03-16T06:25:33.883Z,80.70
2018-03-16T06:28:07.669Z,80.80
2018-03-16T06:30:41.594Z,80.60
2018-03-16T06:33:15.998Z,82.30
2018-03-16T06:35:50.553Z,79.90
2018-03-16T06:38:24.328Z,80.00
2018-03-16T06:40:58.045Z,81.40
2018-03-16T06:43:31.848Z,82.30
2018-03-16T06:46:06.578Z,80.00
2018-03-16T06:48:41.284Z,80.00
2018-03-16T06:51:15.132Z,80.60
2018-03-16T06:53:48.957Z,80.10
2018-03-16T06:56:22.808Z,80.00
2018-03-16T06:58:56.888Z,79.80
2018-03-16T07:01:30.642Z,79.50
2018-03-16T07:04:04.473Z,81.60
2018-03-16T07:06:39.225Z,83.10
2018-03-16T07:09:13.680Z,83.10
2018-03-16T07:11:47.331Z,82.00
2018-03-16T07:14:21.216Z,78.90
2018-03-16T07:16:54.816Z,79.00
2018-03-16T07:19:28.615Z,76.60
2018-03-16T07:22:02.306Z,76.80
2018-03-16T07:24:36.148Z,75.20
2018-03-16T07:27:10.211Z,75.90
2018-03-16T07:29:44.194Z,75.80
2018-03-16T07:32:18.038Z,75.30
2018-03-16T07:34:51.943Z,75.60
2018-03-16T07:37:25.685Z,74.10
2018-03-16T07:39:59.461Z,73.20
2018-03-16T07:42:33.162Z,75.60
2018-03-16T07:45:06.935Z,79.00
2018-03-16T07:47:41.492Z,83.60
2018-03-16T07:50:15.380Z,83.40
2018-03-16T07:52:49.083Z,83.40
2018-03-16T07:55:22.901Z,85.30
2018-03-16T07:57:56.528Z,84.10
2018-03-16T08:00:30.136Z,84.20
2018-03-16T08:03:03.921Z,85.00
2018-03-16T08:05:37.744Z,82.90
2018-03-16T08:08:12.626Z,84.30
2018-03-16T08:10:47.074Z,85.20
2018-03-16T08:13:20.941Z,85.30
2018-03-16T08:15:55.111Z,84.40
2018-03-16T08:18:28.926Z,83.90
2018-03-16T08:21:02.688Z,85.40
2018-03-16T08:23:36.876Z,84.50
2018-03-16T08:26:10.761Z,86.50
2018-03-16T08:28:44.466Z,86.80
2018-03-16T08:31:18.844Z,87.20
2018-03-16T08:33:52.586Z,89.10
2018-03-16T08:36:27.228Z,90.10
2018-03-16T08:39:01.734Z,90.30
2018-03-16T08:41:35.579Z,91.00
2018-03-16T08:47:47.181Z,91.60
2018-03-16T08:50:21.634Z,91.20
2018-03-16T08:52:55.975Z,90.70
2018-03-16T08:55:29.841Z,90.70
2018-03-16T08:58:03.683Z,92.00
2018-03-16T09:00:37.489Z,91.40
2018-03-16T09:03:11.229Z,92.40
2018-03-16T09:05:45.002Z,93.20
2018-03-16T09:08:18.879Z,93.70
2018-03-16T09:10:52.816Z,94.20
2018-03-16T09:13:26.488Z,94.70
2018-03-16T09:16:00.225Z,95.40
2018-03-16T09:18:34.391Z,95.80
2018-03-16T09:21:08.264Z,95.70
2018-03-16T09:23:41.945Z,95.90
2018-03-16T09:26:15.787Z,96.20
2018-03-16T09:28:50.377Z,96.90
2018-03-16T09:31:24.157Z,96.90
2018-03-16T09:33:58.713Z,96.90
2018-03-16T09:36:32.478Z,96.80
2018-03-16T09:39:06.258Z,96.70
2018-03-16T09:41:40.074Z,97.00
2018-03-16T09:44:14.052Z,97.00
2018-03-16T09:46:47.724Z,97.10
2018-03-16T09:49:21.777Z,96.90
2018-03-16T09:51:55.531Z,96.90
2018-03-16T09:54:30.718Z,96.90
2018-03-16T09:57:05.415Z,97.00
2018-03-16T09:59:39.076Z,96.80
2018-03-16T10:02:12.871Z,97.00
2018-03-16T10:04:48.598Z,96.60
2018-03-16T10:10:07.124Z,96.90
2018-03-16T10:12:41.117Z,97.00
2018-03-16T10:15:14.855Z,97.00
2018-03-16T10:17:48.531Z,97.20
2018-03-16T10:20:22.317Z,97.00
2018-03-16T10:22:56.237Z,97.00
2018-03-16T10:25:30.620Z,96.40
2018-03-16T10:28:05.613Z,96.30
2018-03-16T10:30:39.360Z,96.60
2018-03-16T10:33:13.957Z,96.20
2018-03-16T10:35:49.236Z,96.60
2018-03-16T10:38:22.925Z,96.60
2018-03-16T10:40:56.630Z,96.30
2018-03-16T10:43:30.396Z,96.00
2018-03-16T10:46:04.087Z,96.10
2018-03-16T10:48:37.778Z,96.50
2018-03-16T10:51:11.561Z,96.20
2018-03-16T10:53:45.795Z,96.60
2018-03-16T10:56:19.765Z,96.50
2018-03-16T10:58:53.583Z,95.30
2018-03-16T11:01:32.945Z,96.30
2018-03-16T11:04:14.027Z,96.40
2018-03-16T11:06:54.933Z,96.40
2018-03-16T11:09:28.841Z,95.80
2018-03-16T11:12:02.622Z,94.60
2018-03-16T11:14:36.603Z,95.60
2018-03-16T11:17:10.469Z,95.90
2018-03-16T11:19:44.479Z,95.60
2018-03-16T11:22:18.314Z,95.40
2018-03-16T11:24:52.130Z,95.00
2018-03-16T11:27:26.826Z,95.00
2018-03-16T11:30:00.658Z,95.40
2018-03-16T11:32:34.581Z,94.70
2018-03-16T11:35:09.162Z,95.50
2018-03-16T11:37:42.832Z,94.80
2018-03-16T11:40:16.614Z,93.90
2018-03-16T11:42:50.426Z,92.70
2018-03-16T11:45:24.081Z,94.10
2018-03-16T11:47:57.954Z,94.80
2018-03-16T11:50:32.513Z,93.70
2018-03-16T11:53:06.292Z,94.50
2018-03-16T11:55:40.075Z,94.90
2018-03-16T11:58:15.583Z,94.70
2018-03-16T12:00:49.429Z,94.70
2018-03-16T12:03:23.881Z,94.10
2018-03-16T12:05:57.573Z,94.10
2018-03-16T12:08:32.280Z,95.10
2018-03-16T12:11:07.241Z,95.40
2018-03-16T12:13:41.859Z,95.40
2018-03-16T12:16:16.353Z,95.60
2018-03-16T12:18:53.492Z,95.60
2018-03-16T12:21:28.390Z,96.10
2018-03-16T12:24:02.923Z,96.00
2018-03-16T12:26:36.998Z,96.00
2018-03-16T12:29:11.944Z,96.50
2018-03-16T12:31:45.760Z,96.60
2018-03-16T12:34:19.352Z,96.50
2018-03-16T12:36:53.206Z,96.60
2018-03-16T12:39:27.086Z,96.70
2018-03-16T12:42:01.558Z,96.30
2018-03-16T12:44:35.339Z,96.30
2018-03-16T12:47:09.136Z,96.90
2018-03-16T12:49:43.697Z,96.60
2018-03-16T12:52:17.366Z,96.60
2018-03-16T12:54:51.229Z,96.20
2018-03-16T12:57:25.015Z,96.00
2018-03-16T12:59:58.753Z,96.20
2018-03-16T13:02:32.559Z,96.10
2018-03-16T13:05:06.358Z,96.30
2018-03-16T13:07:40.203Z,95.80
2018-03-16T13:10:13.996Z,96.00
2018-03-16T13:12:47.924Z,95.90
2018-03-16T13:15:21.657Z,96.10
2018-03-16T13:17:55.343Z,96.10
2018-03-16T13:20:29.066Z,96.30
2018-03-16T13:23:02.737Z,95.20
2018-03-16T13:25:36.338Z,95.90
2018-03-16T13:28:11.164Z,96.60
2018-03-16T13:30:46.625Z,96.50
2018-03-16T13:33:20.321Z,96.40
2018-03-16T13:35:54.154Z,96.60
2018-03-16T13:38:27.938Z,96.20
2018-03-16T13:41:01.662Z,96.30
2018-03-16T13:43:35.432Z,96.20
2018-03-16T13:46:09.305Z,96.10
2018-03-16T13:48:42.839Z,96.40
2018-03-16T13:51:16.750Z,96.80
2018-03-16T13:53:51.196Z,96.80
2018-03-16T13:56:24.874Z,96.80
2018-03-16T13:58:58.612Z,96.70
2018-03-16T14:01:32.425Z,96.40
2018-03-16T14:04:06.191Z,96.20
2018-03-16T14:06:39.865Z,96.10
2018-03-16T14:09:13.572Z,96.00
2018-03-16T14:11:47.334Z,95.90
2018-03-16T14:14:21.006Z,95.60
2018-03-16T14:16:54.858Z,95.60
2018-03-16T14:19:29.381Z,95.90
2018-03-16T14:22:03.211Z,95.90
2018-03-16T14:24:37.872Z,96.40
2018-03-16T14:27:11.621Z,96.50
2018-03-16T14:29:45.388Z,96.50
2018-03-16T14:32:19.207Z,96.20
2018-03-16T14:34:53.542Z,96.20
2018-03-16T14:37:27.221Z,96.10
2018-03-16T14:40:00.933Z,96.10
2018-03-16T14:42:34.725Z,96.20
2018-03-16T14:45:08.647Z,96.10
2018-03-16T14:47:42.404Z,96.40
2018-03-16T14:50:16.136Z,96.60
2018-03-16T14:52:49.697Z,96.10
2018-03-16T14:55:23.384Z,96.40
2018-03-16T14:57:57.057Z,96.70
2018-03-16T15:00:30.832Z,96.60
2018-03-16T15:03:05.353Z,96.70
2018-03-16T15:05:40.013Z,96.70
2018-03-16T15:08:13.620Z,96.70
2018-03-16T15:10:47.418Z,96.60
2018-03-16T15:13:21.872Z,96.20
2018-03-16T15:15:55.690Z,96.20
2018-03-16T15:18:29.468Z,96.60
2018-03-16T15:21:04.176Z,96.60
2018-03-16T15:23:37.904Z,96.60
2018-03-16T15:26:11.687Z,96.60
2018-03-16T15:28:45.532Z,96.60
2018-03-16T15:31:19.339Z,96.60
2018-03-16T15:33:53.057Z,96.60
2018-03-16T15:36:27.619Z,96.90
2018-03-16T15:39:01.265Z,96.60
2018-03-16T15:41:35.046Z,96.20
2018-03-16T15:44:08.786Z,96.30
2018-03-16T15:46:42.545Z,96.30
2018-03-16T15:49:17.060Z,96.60
2018-03-16T15:51:51.665Z,96.60
2018-03-16T15:54:25.258Z,96.60
2018-03-16T15:56:59.010Z,96.60
2018-03-16T15:59:32.787Z,96.60
2018-03-16T16:02:07.291Z,96.10
2018-03-16T16:04:41.099Z,96.30
2018-03-16T16:07:14.909Z,96.40
2018-03-16T16:09:48.632Z,96.60
2018-03-16T16:12:22.362Z,96.60
2018-03-16T16:14:56.948Z,96.60
2018-03-16T16:17:30.635Z,96.50
2018-03-16T16:20:04.402Z,97.00
2018-03-16T16:22:38.128Z,96.90
2018-03-16T16:25:11.901Z,96.50
2018-03-16T16:27:45.677Z,96.30
2018-03-16T16:30:19.469Z,96.40
2018-03-16T16:32:53.281Z,96.50
2018-03-16T16:35:26.954Z,96.50
2018-03-16T16:38:00.749Z,96.60
2018-03-16T16:40:36.096Z,96.50
2018-03-16T16:43:10.146Z,96.50
2018-03-16T16:45:44.736Z,96.50
2018-03-16T16:48:18.397Z,96.50
2018-03-16T16:50:52.824Z,96.50
2018-03-16T16:53:27.439Z,96.30
2018-03-16T16:56:01.122Z,96.30
2018-03-16T16:58:34.758Z,96.30
2018-03-16T17:01:08.587Z,96.40
2018-03-16T17:03:42.378Z,96.30
2018-03-16T17:06:16.010Z,96.40
2018-03-16T17:08:50.689Z,96.60
2018-03-16T17:11:24.609Z,96.80
2018-03-16T17:13:58.310Z,96.80
2018-03-16T17:16:31.954Z,96.40
2018-03-16T17:19:05.780Z,96.40
2018-03-16T17:21:40.358Z,96.40
2018-03-16T17:24:14.430Z,96.30
2018-03-16T17:26:48.171Z,96.40
2018-03-16T17:29:21.941Z,96.50
2018-03-16T17:31:56.457Z,96.30
2018-03-16T17:34:30.393Z,96.30
2018-03-16T17:37:04.200Z,96.30
2018-03-16T17:39:38.627Z,96.00
2018-03-16T17:42:13.656Z,96.10
2018-03-16T17:44:48.184Z,94.90
2018-03-16T17:47:21.957Z,94.50
2018-03-16T17:49:55.721Z,94.70
2018-03-16T17:52:29.493Z,94.00
2018-03-16T17:55:03.534Z,94.50
2018-03-16T17:57:37.249Z,94.50
2018-03-16T18:00:11.752Z,94.50
2018-03-16T18:02:45.673Z,94.50
2018-03-16T18:05:19.418Z,94.70
2018-03-16T18:07:53.155Z,95.40
2018-03-16T18:10:26.934Z,95.20
2018-03-16T18:13:00.653Z,94.90
2018-03-16T18:15:34.476Z,94.80
2018-03-16T18:18:08.149Z,95.40
2018-03-16T18:20:41.882Z,95.60
2018-03-16T18:23:15.609Z,95.60
2018-03-16T18:25:49.359Z,95.70
2018-03-16T18:31:26.712Z,95.90
2018-03-16T18:34:01.154Z,96.10
2018-03-16T18:36:34.833Z,96.10
2018-03-16T18:39:09.317Z,95.80
2018-03-16T18:41:43.027Z,95.80
2018-03-16T18:44:16.794Z,95.80
2018-03-16T18:46:50.668Z,95.40
2018-03-16T18:49:24.443Z,95.30
2018-03-16T18:51:58.106Z,95.30
2018-03-16T18:54:31.778Z,94.90
2018-03-16T18:57:05.612Z,94.70
2018-03-16T18:59:39.433Z,93.60
2018-03-16T19:02:13.121Z,93.90
2018-03-16T19:04:47.667Z,94.00
2018-03-16T19:07:21.416Z,94.00
2018-03-16T19:09:55.925Z,93.00
2018-03-16T19:12:29.681Z,93.00
2018-03-16T19:15:03.455Z,92.70
2018-03-16T19:17:37.972Z,92.90
2018-03-16T19:20:11.693Z,93.20
2018-03-16T19:22:46.329Z,92.60
2018-03-16T19:25:20.211Z,92.60
2018-03-16T19:27:53.911Z,91.80
2018-03-16T19:30:28.647Z,92.00
2018-03-16T19:33:02.313Z,92.50
2018-03-16T19:35:36.019Z,92.20
2018-03-16T19:38:09.747Z,91.50
2018-03-16T19:40:43.528Z,91.40
2018-03-16T19:43:17.273Z,90.40
2018-03-16T19:45:51.799Z,90.80
2018-03-16T19:48:25.436Z,90.60
2018-03-16T19:50:59.944Z,91.40
2018-03-16T19:53:34.478Z,91.30
2018-03-16T19:56:09.120Z,90.80
2018-03-16T19:58:42.764Z,90.80
2018-03-16T20:01:17.262Z,91.50
2018-03-16T20:03:51.032Z,91.40
2018-03-16T20:06:24.678Z,92.00
2018-03-16T20:08:59.021Z,92.30
2018-03-16T20:11:32.962Z,92.60
2018-03-16T20:14:07.575Z,93.00
2018-03-16T20:16:41.760Z,93.00
2018-03-16T20:19:15.454Z,92.80
2018-03-16T20:21:49.373Z,92.90
2018-03-16T20:24:23.105Z,93.10
2018-03-16T20:26:56.852Z,92.40
2018-03-16T20:29:33.091Z,93.40
2018-03-16T20:32:06.757Z,93.30
2018-03-16T20:34:40.898Z,92.90
2018-03-16T20:37:15.402Z,93.80
2018-03-16T20:39:49.246Z,93.10
2018-03-16T20:42:23.811Z,93.90
2018-03-16T20:44:58.436Z,93.90
2018-03-16T20:47:32.141Z,94.10
2018-03-16T20:50:06.066Z,94.00
2018-03-16T20:52:39.746Z,94.00
2018-03-16T20:55:14.311Z,94.00
2018-03-16T20:57:48.497Z,94.00
2018-03-16T21:00:23.236Z,94.10
2018-03-16T21:02:57.106Z,94.10
2018-03-16T21:05:30.849Z,93.90
2018-03-16T21:08:04.676Z,93.80
2018-03-16T21:10:38.629Z,94.60
2018-03-16T21:13:13.954Z,94.30
2018-03-16T21:15:48.676Z,93.30
2018-03-16T21:18:22.713Z,93.30
2018-03-16T21:20:57.365Z,94.20
2018-03-16T21:23:31.108Z,94.10
2018-03-16T21:26:04.810Z,94.20
2018-03-16T21:28:38.676Z,94.50
2018-03-16T21:31:12.490Z,94.50
2018-03-16T21:33:46.315Z,93.70
2018-03-16T21:36:19.993Z,94.10
2018-03-16T21:38:54.721Z,94.30
2018-03-16T21:41:28.469Z,94.60
2018-03-16T21:44:02.130Z,94.10
2018-03-16T21:46:36.043Z,93.80
2018-03-16T21:49:09.693Z,94.00
2018-03-16T21:51:43.452Z,94.00
2018-03-16T21:54:17.316Z,93.90
2018-03-16T21:56:51.095Z,93.50
2018-03-16T21:59:24.900Z,94.00
2018-03-16T22:01:58.549Z,94.40
2018-03-16T22:04:32.280Z,94.00
2018-03-16T22:07:06.117Z,94.00
2018-03-16T22:09:39.876Z,94.00
2018-03-16T22:12:13.588Z,94.00
2018-03-16T22:14:47.415Z,94.00
2018-03-16T22:17:21.061Z,93.80
2018-03-16T22:19:55.785Z,94.00
2018-03-16T22:22:29.419Z,93.30
2018-03-16T22:25:03.803Z,93.00
2018-03-16T22:27:37.541Z,92.90
2018-03-16T22:30:11.139Z,92.00
2018-03-16T22:32:44.903Z,91.40
2018-03-16T22:35:18.567Z,92.10
2018-03-16T22:37:52.356Z,92.10
2018-03-16T22:40:26.004Z,92.10
2018-03-16T22:43:00.346Z,92.30
2018-03-16T22:45:34.945Z,92.20
2018-03-16T22:48:08.609Z,91.40
2018-03-16T22:50:43.018Z,91.60
2018-03-16T22:53:16.802Z,91.20
2018-03-16T22:55:51.359Z,92.10
2018-03-16T22:58:25.084Z,92.10
2018-03-16T23:00:58.868Z,90.20
2018-03-16T23:03:32.679Z,90.90
2018-03-16T23:06:06.637Z,90.90
2018-03-16T23:08:40.416Z,90.90
2018-03-16T23:11:14.117Z,90.80
2018-03-16T23:13:47.941Z,91.20
2018-03-16T23:16:21.681Z,90.60
2018-03-16T23:18:56.016Z,90.90
2018-03-16T23:21:29.755Z,90.90
2018-03-16T23:24:03.526Z,91.30
2018-03-16T23:26:37.197Z,91.30
2018-03-16T23:29:11.059Z,91.30
2018-03-16T23:31:45.656Z,91.20
2018-03-16T23:34:19.634Z,90.90
2018-03-16T23:36:53.540Z,91.00
2018-03-16T23:39:27.273Z,91.50
2018-03-16T23:42:01.013Z,91.50
2018-03-16T23:44:35.507Z,91.90
2018-03-16T23:47:09.114Z,91.90
2018-03-16T23:49:42.976Z,91.40
2018-03-16T23:52:17.620Z,92.00
2018-03-16T23:54:51.433Z,91.90
2018-03-16T23:57:25.159Z,91.60
2018-03-16T23:59:58.981Z,92.60
